sensor_id;sensor_type;location;lat;lon;timestamp;P1;durP1;ratioP1;P2;durP2;ratioP2
59504;SDS011;45321;53.200;5.814;2024-01-15T00:01:57;15.40;;;3.05;;
59504;SDS011;45321;53.200;5.814;2024-01-15T00:04:23;13.23;;;2.17;;
59504;SDS011;45321;53.200;5.814;2024-01-15T00:06:49;16.83;;;2.40;;
59504;SDS011;45321;53.200;5.814;2024-01-15T00:09:15;16.83;;;2.47;;
59504;SDS011;45321;53.200;5.814;2024-01-15T00:11:41;18.33;;;2.50;;
59504;SDS011;45321;53.200;5.814;2024-01-15T00:14:09;20.45;;;2.78;;
59504;SDS011;45321;53.200;5.814;2024-01-15T00:16:35;22.42;;;3.33;;
59504;SDS011;45321;53.200;5.814;2024-01-15T00:19:00;17.23;;;2.42;;
59504;SDS011;45321;53.200;5.814;2024-01-15T00:21:26;25.52;;;3.10;;
59504;SDS011;45321;53.200;5.814;2024-01-15T00:23:53;18.17;;;2.25;;
59504;SDS011;45321;53.200;5.814;2024-01-15T00:26:19;14.57;;;2.42;;
59504;SDS011;45321;53.200;5.814;2024-01-15T00:28:44;14.50;;;2.53;;
59504;SDS011;45321;53.200;5.814;2024-01-15T00:31:10;20.98;;;2.83;;
59504;SDS011;45321;53.200;5.814;2024-01-15T00:33:36;15.98;;;3.15;;
59504;SDS011;45321;53.200;5.814;2024-01-15T00:36:02;25.45;;;2.70;;
59504;SDS011;45321;53.200;5.814;2024-01-15T00:38:28;15.95;;;2.72;;
59504;SDS011;45321;53.200;5.814;2024-01-15T00:40:54;14.20;;;2.08;;
59504;SDS011;45321;53.200;5.814;2024-01-15T00:43:20;8.15;;;1.10;;
59504;SDS011;45321;53.200;5.814;2024-01-15T00:45:46;6.15;;;1.20;;
59504;SDS011;45321;53.200;5.814;2024-01-15T00:48:12;12.55;;;1.85;;
59504;SDS011;45321;53.200;5.814;2024-01-15T00:50:37;9.60;;;1.40;;
59504;SDS011;45321;53.200;5.814;2024-01-15T00:53:03;11.90;;;1.80;;
59504;SDS011;45321;53.200;5.814;2024-01-15T00:55:29;12.13;;;1.88;;
59504;SDS011;45321;53.200;5.814;2024-01-15T00:57:55;11.77;;;1.40;;
59504;SDS011;45321;53.200;5.814;2024-01-15T01:00:20;13.23;;;1.42;;
59504;SDS011;45321;53.200;5.814;2024-01-15T01:02:46;14.82;;;2.38;;
59504;SDS011;45321;53.200;5.814;2024-01-15T01:05:12;8.75;;;2.00;;
59504;SDS011;45321;53.200;5.814;2024-01-15T01:07:38;9.48;;;1.70;;
59504;SDS011;45321;53.200;5.814;2024-01-15T01:10:03;12.50;;;1.45;;
59504;SDS011;45321;53.200;5.814;2024-01-15T01:12:29;9.25;;;1.63;;
59504;SDS011;45321;53.200;5.814;2024-01-15T01:14:55;17.05;;;3.13;;
59504;SDS011;45321;53.200;5.814;2024-01-15T01:17:21;11.73;;;2.10;;
59504;SDS011;45321;53.200;5.814;2024-01-15T01:19:47;16.23;;;2.55;;
59504;SDS011;45321;53.200;5.814;2024-01-15T01:22:14;12.18;;;2.22;;
59504;SDS011;45321;53.200;5.814;2024-01-15T01:24:40;20.27;;;2.88;;
59504;SDS011;45321;53.200;5.814;2024-01-15T01:27:05;19.15;;;4.03;;
59504;SDS011;45321;53.200;5.814;2024-01-15T01:29:32;20.23;;;3.65;;
59504;SDS011;45321;53.200;5.814;2024-01-15T01:31:57;19.05;;;2.97;;
59504;SDS011;45321;53.200;5.814;2024-01-15T01:34:23;26.25;;;3.90;;
59504;SDS011;45321;53.200;5.814;2024-01-15T01:36:49;26.08;;;3.13;;
59504;SDS011;45321;53.200;5.814;2024-01-15T01:39:15;18.38;;;3.38;;
59504;SDS011;45321;53.200;5.814;2024-01-15T01:41:41;27.27;;;3.80;;
59504;SDS011;45321;53.200;5.814;2024-01-15T01:44:06;28.52;;;3.92;;
59504;SDS011;45321;53.200;5.814;2024-01-15T01:46:32;25.23;;;3.30;;
59504;SDS011;45321;53.200;5.814;2024-01-15T01:49:04;23.42;;;3.22;;
59504;SDS011;45321;53.200;5.814;2024-01-15T01:51:31;23.02;;;3.72;;
59504;SDS011;45321;53.200;5.814;2024-01-15T01:53:58;20.10;;;3.40;;
59504;SDS011;45321;53.200;5.814;2024-01-15T01:56:24;21.23;;;3.20;;
59504;SDS011;45321;53.200;5.814;2024-01-15T01:58:50;25.30;;;3.35;;
59504;SDS011;45321;53.200;5.814;2024-01-15T02:01:16;32.60;;;4.78;;
59504;SDS011;45321;53.200;5.814;2024-01-15T02:03:43;24.00;;;3.38;;
59504;SDS011;45321;53.200;5.814;2024-01-15T02:06:09;31.10;;;3.60;;
59504;SDS011;45321;53.200;5.814;2024-01-15T02:08:34;28.58;;;4.65;;
59504;SDS011;45321;53.200;5.814;2024-01-15T02:11:01;26.52;;;3.25;;
59504;SDS011;45321;53.200;5.814;2024-01-15T02:13:27;26.90;;;3.67;;
59504;SDS011;45321;53.200;5.814;2024-01-15T02:15:53;21.85;;;3.42;;
59504;SDS011;45321;53.200;5.814;2024-01-15T02:18:18;22.17;;;2.90;;
59504;SDS011;45321;53.200;5.814;2024-01-15T02:20:45;21.20;;;2.85;;
59504;SDS011;45321;53.200;5.814;2024-01-15T02:23:11;22.17;;;3.00;;
59504;SDS011;45321;53.200;5.814;2024-01-15T02:25:42;19.63;;;2.30;;
59504;SDS011;45321;53.200;5.814;2024-01-15T02:28:10;21.10;;;2.88;;
59504;SDS011;45321;53.200;5.814;2024-01-15T02:30:38;20.17;;;2.28;;
59504;SDS011;45321;53.200;5.814;2024-01-15T02:33:05;16.27;;;2.17;;
59504;SDS011;45321;53.200;5.814;2024-01-15T02:35:31;16.38;;;2.17;;
59504;SDS011;45321;53.200;5.814;2024-01-15T02:37:58;16.25;;;2.38;;
59504;SDS011;45321;53.200;5.814;2024-01-15T02:40:24;24.13;;;2.85;;
59504;SDS011;45321;53.200;5.814;2024-01-15T02:42:50;19.15;;;3.13;;
59504;SDS011;45321;53.200;5.814;2024-01-15T02:45:16;14.18;;;1.50;;
59504;SDS011;45321;53.200;5.814;2024-01-15T02:47:42;14.85;;;1.70;;
59504;SDS011;45321;53.200;5.814;2024-01-15T02:50:07;15.93;;;2.05;;
59504;SDS011;45321;53.200;5.814;2024-01-15T02:52:33;7.22;;;1.38;;
59504;SDS011;45321;53.200;5.814;2024-01-15T02:54:59;12.00;;;1.92;;
59504;SDS011;45321;53.200;5.814;2024-01-15T02:57:25;15.00;;;1.90;;
59504;SDS011;45321;53.200;5.814;2024-01-15T02:59:50;12.20;;;2.05;;
59504;SDS011;45321;53.200;5.814;2024-01-15T03:02:16;17.00;;;2.78;;
59504;SDS011;45321;53.200;5.814;2024-01-15T03:04:45;18.17;;;3.17;;
59504;SDS011;45321;53.200;5.814;2024-01-15T03:07:11;12.52;;;2.70;;
59504;SDS011;45321;53.200;5.814;2024-01-15T03:09:37;18.77;;;2.67;;
59504;SDS011;45321;53.200;5.814;2024-01-15T03:12:03;15.48;;;2.85;;
59504;SDS011;45321;53.200;5.814;2024-01-15T03:14:29;24.58;;;3.17;;
59504;SDS011;45321;53.200;5.814;2024-01-15T03:16:55;15.65;;;2.50;;
59504;SDS011;45321;53.200;5.814;2024-01-15T03:19:21;24.98;;;3.58;;
59504;SDS011;45321;53.200;5.814;2024-01-15T03:21:46;12.98;;;2.53;;
59504;SDS011;45321;53.200;5.814;2024-01-15T03:24:12;15.30;;;2.60;;
59504;SDS011;45321;53.200;5.814;2024-01-15T03:26:38;16.08;;;2.47;;
59504;SDS011;45321;53.200;5.814;2024-01-15T03:29:04;21.05;;;2.25;;
59504;SDS011;45321;53.200;5.814;2024-01-15T03:31:30;15.60;;;2.22;;
59504;SDS011;45321;53.200;5.814;2024-01-15T03:33:56;16.08;;;2.40;;
59504;SDS011;45321;53.200;5.814;2024-01-15T03:36:21;11.77;;;1.70;;
59504;SDS011;45321;53.200;5.814;2024-01-15T03:38:47;12.10;;;1.85;;
59504;SDS011;45321;53.200;5.814;2024-01-15T03:41:13;14.18;;;2.10;;
59504;SDS011;45321;53.200;5.814;2024-01-15T03:43:38;11.23;;;1.50;;
59504;SDS011;45321;53.200;5.814;2024-01-15T03:46:05;12.13;;;1.98;;
59504;SDS011;45321;53.200;5.814;2024-01-15T03:48:31;10.27;;;1.52;;
59504;SDS011;45321;53.200;5.814;2024-01-15T03:50:56;5.32;;;0.82;;
59504;SDS011;45321;53.200;5.814;2024-01-15T03:53:22;9.38;;;0.98;;
59504;SDS011;45321;53.200;5.814;2024-01-15T03:55:48;5.05;;;0.90;;
59504;SDS011;45321;53.200;5.814;2024-01-15T03:58:14;3.15;;;0.73;;
59504;SDS011;45321;53.200;5.814;2024-01-15T04:00:40;4.53;;;0.77;;
59504;SDS011;45321;53.200;5.814;2024-01-15T04:03:07;6.28;;;1.17;;
59504;SDS011;45321;53.200;5.814;2024-01-15T04:05:32;7.18;;;1.15;;
59504;SDS011;45321;53.200;5.814;2024-01-15T04:07:58;6.13;;;1.23;;
59504;SDS011;45321;53.200;5.814;2024-01-15T04:10:24;8.85;;;1.50;;
59504;SDS011;45321;53.200;5.814;2024-01-15T04:12:50;16.23;;;1.60;;
59504;SDS011;45321;53.200;5.814;2024-01-15T04:15:15;9.05;;;1.25;;
59504;SDS011;45321;53.200;5.814;2024-01-15T04:17:41;15.05;;;1.60;;
59504;SDS011;45321;53.200;5.814;2024-01-15T04:20:07;8.73;;;1.67;;
59504;SDS011;45321;53.200;5.814;2024-01-15T04:22:36;11.45;;;2.40;;
59504;SDS011;45321;53.200;5.814;2024-01-15T04:25:02;8.55;;;1.40;;
59504;SDS011;45321;53.200;5.814;2024-01-15T04:27:28;19.67;;;2.00;;
59504;SDS011;45321;53.200;5.814;2024-01-15T04:29:54;11.70;;;2.25;;
59504;SDS011;45321;53.200;5.814;2024-01-15T04:32:20;14.60;;;1.80;;
59504;SDS011;45321;53.200;5.814;2024-01-15T04:34:46;12.05;;;1.90;;
59504;SDS011;45321;53.200;5.814;2024-01-15T04:37:11;11.43;;;2.78;;
59504;SDS011;45321;53.200;5.814;2024-01-15T04:39:39;10.73;;;2.00;;
59504;SDS011;45321;53.200;5.814;2024-01-15T04:42:04;10.55;;;2.22;;
59504;SDS011;45321;53.200;5.814;2024-01-15T04:44:30;10.27;;;1.85;;
59504;SDS011;45321;53.200;5.814;2024-01-15T04:46:56;13.95;;;2.53;;
59504;SDS011;45321;53.200;5.814;2024-01-15T04:49:22;13.55;;;1.85;;
59504;SDS011;45321;53.200;5.814;2024-01-15T04:51:47;12.52;;;1.98;;
59504;SDS011;45321;53.200;5.814;2024-01-15T04:54:13;15.00;;;2.88;;
59504;SDS011;45321;53.200;5.814;2024-01-15T04:56:42;12.45;;;2.17;;
59504;SDS011;45321;53.200;5.814;2024-01-15T04:59:11;13.65;;;2.20;;
59504;SDS011;45321;53.200;5.814;2024-01-15T05:01:39;11.30;;;2.13;;
59504;SDS011;45321;53.200;5.814;2024-01-15T05:04:05;10.05;;;3.00;;
59504;SDS011;45321;53.200;5.814;2024-01-15T05:06:31;15.90;;;3.60;;
59504;SDS011;45321;53.200;5.814;2024-01-15T05:08:56;9.65;;;2.15;;
59504;SDS011;45321;53.200;5.814;2024-01-15T05:11:22;12.98;;;2.25;;
59504;SDS011;45321;53.200;5.814;2024-01-15T05:13:48;9.98;;;2.90;;
59504;SDS011;45321;53.200;5.814;2024-01-15T05:16:14;15.10;;;2.15;;
59504;SDS011;45321;53.200;5.814;2024-01-15T05:18:40;12.48;;;2.20;;
59504;SDS011;45321;53.200;5.814;2024-01-15T05:21:05;14.77;;;2.60;;
59504;SDS011;45321;53.200;5.814;2024-01-15T05:23:31;22.95;;;3.00;;
59504;SDS011;45321;53.200;5.814;2024-01-15T05:25:57;17.95;;;3.10;;
59504;SDS011;45321;53.200;5.814;2024-01-15T05:28:23;18.98;;;3.40;;
59504;SDS011;45321;53.200;5.814;2024-01-15T05:30:48;19.73;;;2.70;;
59504;SDS011;45321;53.200;5.814;2024-01-15T05:33:15;19.48;;;2.75;;
59504;SDS011;45321;53.200;5.814;2024-01-15T05:35:41;34.08;;;3.63;;
59504;SDS011;45321;53.200;5.814;2024-01-15T05:38:08;15.93;;;2.40;;
59504;SDS011;45321;53.200;5.814;2024-01-15T05:40:33;9.05;;;1.90;;
59504;SDS011;45321;53.200;5.814;2024-01-15T05:42:59;21.52;;;3.53;;
59504;SDS011;45321;53.200;5.814;2024-01-15T05:45:26;14.05;;;2.33;;
59504;SDS011;45321;53.200;5.814;2024-01-15T05:47:52;19.33;;;3.40;;
59504;SDS011;45321;53.200;5.814;2024-01-15T05:50:17;17.10;;;2.45;;
59504;SDS011;45321;53.200;5.814;2024-01-15T05:52:43;25.45;;;4.47;;
59504;SDS011;45321;53.200;5.814;2024-01-15T05:55:09;19.42;;;3.92;;
59504;SDS011;45321;53.200;5.814;2024-01-15T05:57:35;16.85;;;2.78;;
59504;SDS011;45321;53.200;5.814;2024-01-15T06:00:01;17.63;;;2.60;;
59504;SDS011;45321;53.200;5.814;2024-01-15T06:02:28;18.23;;;2.80;;
59504;SDS011;45321;53.200;5.814;2024-01-15T06:04:53;15.18;;;2.05;;
59504;SDS011;45321;53.200;5.814;2024-01-15T06:07:19;8.18;;;1.98;;
59504;SDS011;45321;53.200;5.814;2024-01-15T06:09:45;13.50;;;1.90;;
59504;SDS011;45321;53.200;5.814;2024-01-15T06:12:10;15.23;;;2.00;;
59504;SDS011;45321;53.200;5.814;2024-01-15T06:14:36;12.27;;;1.80;;
59504;SDS011;45321;53.200;5.814;2024-01-15T06:17:02;7.05;;;1.35;;
59504;SDS011;45321;53.200;5.814;2024-01-15T06:19:28;11.10;;;1.80;;
59504;SDS011;45321;53.200;5.814;2024-01-15T06:21:53;8.02;;;1.50;;
59504;SDS011;45321;53.200;5.814;2024-01-15T06:24:19;10.23;;;1.67;;
59504;SDS011;45321;53.200;5.814;2024-01-15T06:26:46;11.27;;;1.35;;
59504;SDS011;45321;53.200;5.814;2024-01-15T06:29:12;7.35;;;1.30;;
59504;SDS011;45321;53.200;5.814;2024-01-15T06:31:38;10.02;;;1.80;;
59504;SDS011;45321;53.200;5.814;2024-01-15T06:34:04;8.55;;;1.60;;
59504;SDS011;45321;53.200;5.814;2024-01-15T06:36:30;9.05;;;1.48;;
59504;SDS011;45321;53.200;5.814;2024-01-15T06:38:55;11.02;;;1.77;;
59504;SDS011;45321;53.200;5.814;2024-01-15T06:41:21;10.45;;;1.63;;
59504;SDS011;45321;53.200;5.814;2024-01-15T06:43:47;14.65;;;1.98;;
59504;SDS011;45321;53.200;5.814;2024-01-15T06:46:19;14.77;;;1.83;;
59504;SDS011;45321;53.200;5.814;2024-01-15T06:48:48;12.43;;;2.22;;
59504;SDS011;45321;53.200;5.814;2024-01-15T06:51:15;12.23;;;2.13;;
59504;SDS011;45321;53.200;5.814;2024-01-15T06:53:41;16.25;;;2.65;;
59504;SDS011;45321;53.200;5.814;2024-01-15T06:56:09;15.02;;;2.10;;
59504;SDS011;45321;53.200;5.814;2024-01-15T06:58:40;13.73;;;2.40;;
59504;SDS011;45321;53.200;5.814;2024-01-15T07:01:06;15.35;;;2.47;;
59504;SDS011;45321;53.200;5.814;2024-01-15T07:03:33;14.70;;;2.95;;
59504;SDS011;45321;53.200;5.814;2024-01-15T07:05:58;14.00;;;2.45;;
59504;SDS011;45321;53.200;5.814;2024-01-15T07:08:24;11.73;;;2.65;;
59504;SDS011;45321;53.200;5.814;2024-01-15T07:10:50;20.60;;;2.80;;
59504;SDS011;45321;53.200;5.814;2024-01-15T07:13:15;13.95;;;2.35;;
59504;SDS011;45321;53.200;5.814;2024-01-15T07:15:41;20.65;;;4.57;;
59504;SDS011;45321;53.200;5.814;2024-01-15T07:18:07;20.40;;;2.50;;
59504;SDS011;45321;53.200;5.814;2024-01-15T07:20:32;15.55;;;2.38;;
59504;SDS011;45321;53.200;5.814;2024-01-15T07:22:58;12.40;;;2.15;;
59504;SDS011;45321;53.200;5.814;2024-01-15T07:25:24;12.77;;;1.80;;
59504;SDS011;45321;53.200;5.814;2024-01-15T07:27:51;9.60;;;1.67;;
59504;SDS011;45321;53.200;5.814;2024-01-15T07:30:18;14.05;;;2.35;;
59504;SDS011;45321;53.200;5.814;2024-01-15T07:32:44;18.30;;;3.22;;
59504;SDS011;45321;53.200;5.814;2024-01-15T07:35:10;12.70;;;2.08;;
59504;SDS011;45321;53.200;5.814;2024-01-15T07:37:36;8.25;;;1.33;;
59504;SDS011;45321;53.200;5.814;2024-01-15T07:40:02;11.38;;;1.35;;
59504;SDS011;45321;53.200;5.814;2024-01-15T07:42:29;11.13;;;1.10;;
59504;SDS011;45321;53.200;5.814;2024-01-15T07:44:55;5.65;;;0.80;;
59504;SDS011;45321;53.200;5.814;2024-01-15T07:47:21;5.40;;;1.30;;
59504;SDS011;45321;53.200;5.814;2024-01-15T07:49:46;7.25;;;1.00;;
59504;SDS011;45321;53.200;5.814;2024-01-15T07:52:12;5.75;;;0.80;;
59504;SDS011;45321;53.200;5.814;2024-01-15T07:54:38;5.00;;;1.00;;
59504;SDS011;45321;53.200;5.814;2024-01-15T07:57:04;6.93;;;1.00;;
59504;SDS011;45321;53.200;5.814;2024-01-15T07:59:30;5.10;;;0.90;;
59504;SDS011;45321;53.200;5.814;2024-01-15T08:01:56;3.38;;;0.90;;
59504;SDS011;45321;53.200;5.814;2024-01-15T08:04:24;4.45;;;1.13;;
59504;SDS011;45321;53.200;5.814;2024-01-15T08:06:49;9.57;;;2.25;;
59504;SDS011;45321;53.200;5.814;2024-01-15T08:09:15;6.05;;;1.15;;
59504;SDS011;45321;53.200;5.814;2024-01-15T08:11:41;4.40;;;1.58;;
59504;SDS011;45321;53.200;5.814;2024-01-15T08:14:08;4.57;;;1.25;;
59504;SDS011;45321;53.200;5.814;2024-01-15T08:16:34;6.45;;;1.30;;
59504;SDS011;45321;53.200;5.814;2024-01-15T08:19:00;7.65;;;1.75;;
59504;SDS011;45321;53.200;5.814;2024-01-15T08:21:26;5.38;;;1.48;;
59504;SDS011;45321;53.200;5.814;2024-01-15T08:23:57;9.90;;;1.98;;
59504;SDS011;45321;53.200;5.814;2024-01-15T08:26:23;7.88;;;2.85;;
59504;SDS011;45321;53.200;5.814;2024-01-15T08:28:49;12.63;;;2.53;;
59504;SDS011;45321;53.200;5.814;2024-01-15T08:31:15;10.15;;;2.10;;
59504;SDS011;45321;53.200;5.814;2024-01-15T08:33:43;17.08;;;2.13;;
59504;SDS011;45321;53.200;5.814;2024-01-15T08:36:09;16.33;;;3.10;;
59504;SDS011;45321;53.200;5.814;2024-01-15T08:38:35;12.98;;;2.08;;
59504;SDS011;45321;53.200;5.814;2024-01-15T08:41:01;10.63;;;2.00;;
59504;SDS011;45321;53.200;5.814;2024-01-15T08:43:27;19.23;;;2.33;;
59504;SDS011;45321;53.200;5.814;2024-01-15T08:45:53;13.90;;;1.85;;
59504;SDS011;45321;53.200;5.814;2024-01-15T08:48:19;6.90;;;1.55;;
59504;SDS011;45321;53.200;5.814;2024-01-15T08:50:45;10.68;;;1.83;;
59504;SDS011;45321;53.200;5.814;2024-01-15T08:53:11;9.20;;;1.42;;
59504;SDS011;45321;53.200;5.814;2024-01-15T08:55:37;9.02;;;1.65;;
59504;SDS011;45321;53.200;5.814;2024-01-15T08:58:03;9.20;;;1.63;;
59504;SDS011;45321;53.200;5.814;2024-01-15T09:00:29;10.02;;;3.05;;
59504;SDS011;45321;53.200;5.814;2024-01-15T09:02:55;14.98;;;1.85;;
59504;SDS011;45321;53.200;5.814;2024-01-15T09:05:21;12.10;;;1.38;;
59504;SDS011;45321;53.200;5.814;2024-01-15T09:07:47;11.70;;;1.45;;
59504;SDS011;45321;53.200;5.814;2024-01-15T09:10:14;16.80;;;1.98;;
59504;SDS011;45321;53.200;5.814;2024-01-15T09:12:39;16.33;;;2.35;;
59504;SDS011;45321;53.200;5.814;2024-01-15T09:15:05;14.23;;;2.05;;
59504;SDS011;45321;53.200;5.814;2024-01-15T09:17:31;17.30;;;1.83;;
59504;SDS011;45321;53.200;5.814;2024-01-15T09:19:57;10.05;;;1.48;;
59504;SDS011;45321;53.200;5.814;2024-01-15T09:22:23;12.05;;;1.65;;
59504;SDS011;45321;53.200;5.814;2024-01-15T09:24:49;8.45;;;1.52;;
59504;SDS011;45321;53.200;5.814;2024-01-15T09:27:15;12.60;;;2.10;;
59504;SDS011;45321;53.200;5.814;2024-01-15T09:29:41;10.57;;;2.80;;
59504;SDS011;45321;53.200;5.814;2024-01-15T09:32:08;10.43;;;1.58;;
59504;SDS011;45321;53.200;5.814;2024-01-15T09:34:33;12.80;;;3.50;;
59504;SDS011;45321;53.200;5.814;2024-01-15T09:36:59;7.80;;;1.75;;
59504;SDS011;45321;53.200;5.814;2024-01-15T09:39:25;7.32;;;1.40;;
59504;SDS011;45321;53.200;5.814;2024-01-15T09:41:52;8.95;;;1.50;;
59504;SDS011;45321;53.200;5.814;2024-01-15T09:44:22;4.57;;;1.08;;
59504;SDS011;45321;53.200;5.814;2024-01-15T09:46:48;5.68;;;1.00;;
59504;SDS011;45321;53.200;5.814;2024-01-15T09:49:17;4.10;;;0.70;;
59504;SDS011;45321;53.200;5.814;2024-01-15T09:51:43;5.93;;;0.80;;
59504;SDS011;45321;53.200;5.814;2024-01-15T09:54:09;3.42;;;0.80;;
59504;SDS011;45321;53.200;5.814;2024-01-15T09:56:35;5.72;;;0.95;;
59504;SDS011;45321;53.200;5.814;2024-01-15T09:59:02;8.07;;;1.85;;
59504;SDS011;45321;53.200;5.814;2024-01-15T10:01:29;7.22;;;1.50;;
59504;SDS011;45321;53.200;5.814;2024-01-15T10:03:57;8.48;;;1.23;;
59504;SDS011;45321;53.200;5.814;2024-01-15T10:06:24;6.20;;;1.05;;
59504;SDS011;45321;53.200;5.814;2024-01-15T10:08:56;2.17;;;0.80;;
59504;SDS011;45321;53.200;5.814;2024-01-15T10:11:25;3.40;;;0.70;;
59504;SDS011;45321;53.200;5.814;2024-01-15T10:13:51;5.05;;;1.00;;
59504;SDS011;45321;53.200;5.814;2024-01-15T10:16:21;5.18;;;0.88;;
59504;SDS011;45321;53.200;5.814;2024-01-15T10:18:47;6.30;;;0.90;;
59504;SDS011;45321;53.200;5.814;2024-01-15T10:21:13;6.35;;;0.90;;
59504;SDS011;45321;53.200;5.814;2024-01-15T10:23:39;6.93;;;1.10;;
59504;SDS011;45321;53.200;5.814;2024-01-15T10:26:05;3.22;;;0.85;;
59504;SDS011;45321;53.200;5.814;2024-01-15T10:28:31;6.20;;;1.00;;
59504;SDS011;45321;53.200;5.814;2024-01-15T10:30:57;10.10;;;1.63;;
59504;SDS011;45321;53.200;5.814;2024-01-15T10:33:27;12.02;;;1.20;;
59504;SDS011;45321;53.200;5.814;2024-01-15T10:35:53;11.90;;;1.60;;
59504;SDS011;45321;53.200;5.814;2024-01-15T10:38:23;10.55;;;1.45;;
59504;SDS011;45321;53.200;5.814;2024-01-15T10:40:56;10.07;;;1.70;;
59504;SDS011;45321;53.200;5.814;2024-01-15T10:43:22;10.23;;;2.00;;
59504;SDS011;45321;53.200;5.814;2024-01-15T10:45:49;9.52;;;1.40;;
59504;SDS011;45321;53.200;5.814;2024-01-15T10:48:18;10.23;;;1.95;;
59504;SDS011;45321;53.200;5.814;2024-01-15T10:50:45;10.77;;;1.77;;
59504;SDS011;45321;53.200;5.814;2024-01-15T10:53:12;11.57;;;1.67;;
59504;SDS011;45321;53.200;5.814;2024-01-15T10:55:39;20.05;;;2.00;;
59504;SDS011;45321;53.200;5.814;2024-01-15T10:58:07;7.57;;;1.23;;
59504;SDS011;45321;53.200;5.814;2024-01-15T11:00:34;9.95;;;1.50;;
59504;SDS011;45321;53.200;5.814;2024-01-15T11:03:03;9.27;;;1.70;;
59504;SDS011;45321;53.200;5.814;2024-01-15T11:05:33;10.85;;;1.50;;
59504;SDS011;45321;53.200;5.814;2024-01-15T11:08:18;10.68;;;1.73;;
59504;SDS011;45321;53.200;5.814;2024-01-15T11:10:45;16.33;;;1.98;;
59504;SDS011;45321;53.200;5.814;2024-01-15T11:13:15;11.65;;;2.08;;
59504;SDS011;45321;53.200;5.814;2024-01-15T11:15:56;12.23;;;1.52;;
59504;SDS011;45321;53.200;5.814;2024-01-15T11:18:23;12.15;;;1.60;;
59504;SDS011;45321;53.200;5.814;2024-01-15T11:23:46;11.55;;;1.58;;
59504;SDS011;45321;53.200;5.814;2024-01-15T11:26:31;8.15;;;1.80;;
59504;SDS011;45321;53.200;5.814;2024-01-15T11:29:10;7.43;;;1.20;;
59504;SDS011;45321;53.200;5.814;2024-01-15T11:37:19;4.47;;;1.27;;
59504;SDS011;45321;53.200;5.814;2024-01-15T11:39:45;6.60;;;1.40;;
59504;SDS011;45321;53.200;5.814;2024-01-15T11:42:13;6.50;;;1.23;;
59504;SDS011;45321;53.200;5.814;2024-01-15T11:44:39;10.07;;;1.58;;
59504;SDS011;45321;53.200;5.814;2024-01-15T11:52:07;5.72;;;1.58;;
59504;SDS011;45321;53.200;5.814;2024-01-15T11:54:37;11.35;;;1.88;;
59504;SDS011;45321;53.200;5.814;2024-01-15T11:57:09;12.48;;;1.83;;
59504;SDS011;45321;53.200;5.814;2024-01-15T11:59:41;8.93;;;1.45;;
59504;SDS011;45321;53.200;5.814;2024-01-15T12:02:08;9.77;;;2.03;;
59504;SDS011;45321;53.200;5.814;2024-01-15T12:04:36;10.55;;;1.77;;
59504;SDS011;45321;53.200;5.814;2024-01-15T12:07:02;12.57;;;1.77;;
59504;SDS011;45321;53.200;5.814;2024-01-15T12:09:28;7.78;;;1.40;;
59504;SDS011;45321;53.200;5.814;2024-01-15T12:11:57;7.88;;;1.38;;
59504;SDS011;45321;53.200;5.814;2024-01-15T12:14:32;6.72;;;1.48;;
59504;SDS011;45321;53.200;5.814;2024-01-15T12:16:59;8.93;;;1.75;;
59504;SDS011;45321;53.200;5.814;2024-01-15T12:19:25;6.80;;;1.30;;
59504;SDS011;45321;53.200;5.814;2024-01-15T12:21:51;10.48;;;2.05;;
59504;SDS011;45321;53.200;5.814;2024-01-15T12:24:17;6.72;;;1.75;;
59504;SDS011;45321;53.200;5.814;2024-01-15T12:26:43;5.20;;;1.20;;
59504;SDS011;45321;53.200;5.814;2024-01-15T12:29:10;5.78;;;1.70;;
59504;SDS011;45321;53.200;5.814;2024-01-15T12:31:36;10.65;;;1.67;;
59504;SDS011;45321;53.200;5.814;2024-01-15T12:34:02;7.15;;;1.45;;
59504;SDS011;45321;53.200;5.814;2024-01-15T12:36:30;12.18;;;2.10;;
59504;SDS011;45321;53.200;5.814;2024-01-15T12:38:59;10.07;;;1.60;;
59504;SDS011;45321;53.200;5.814;2024-01-15T12:41:26;13.07;;;1.52;;
59504;SDS011;45321;53.200;5.814;2024-01-15T12:43:51;11.40;;;2.25;;
59504;SDS011;45321;53.200;5.814;2024-01-15T12:46:17;12.73;;;1.73;;
59504;SDS011;45321;53.200;5.814;2024-01-15T12:48:44;19.98;;;2.78;;
59504;SDS011;45321;53.200;5.814;2024-01-15T12:51:10;23.77;;;3.65;;
59504;SDS011;45321;53.200;5.814;2024-01-15T12:53:36;15.18;;;2.80;;
59504;SDS011;45321;53.200;5.814;2024-01-15T12:56:02;13.07;;;2.15;;
59504;SDS011;45321;53.200;5.814;2024-01-15T12:58:28;16.08;;;2.63;;
59504;SDS011;45321;53.200;5.814;2024-01-15T13:00:53;17.92;;;3.13;;
59504;SDS011;45321;53.200;5.814;2024-01-15T13:03:19;15.98;;;2.85;;
59504;SDS011;45321;53.200;5.814;2024-01-15T13:05:45;17.33;;;3.88;;
59504;SDS011;45321;53.200;5.814;2024-01-15T13:08:11;16.17;;;2.85;;
59504;SDS011;45321;53.200;5.814;2024-01-15T13:10:37;16.17;;;2.60;;
59504;SDS011;45321;53.200;5.814;2024-01-15T13:13:02;17.02;;;2.60;;
59504;SDS011;45321;53.200;5.814;2024-01-15T13:15:31;15.38;;;2.40;;
59504;SDS011;45321;53.200;5.814;2024-01-15T13:17:59;18.98;;;2.85;;
59504;SDS011;45321;53.200;5.814;2024-01-15T13:20:25;16.10;;;2.67;;
59504;SDS011;45321;53.200;5.814;2024-01-15T13:22:51;19.08;;;3.53;;
59504;SDS011;45321;53.200;5.814;2024-01-15T13:25:16;15.77;;;2.90;;
59504;SDS011;45321;53.200;5.814;2024-01-15T13:27:42;19.42;;;3.55;;
59504;SDS011;45321;53.200;5.814;2024-01-15T13:30:10;16.75;;;2.80;;
59504;SDS011;45321;53.200;5.814;2024-01-15T13:32:44;16.25;;;3.28;;
59504;SDS011;45321;53.200;5.814;2024-01-15T13:35:10;12.95;;;2.47;;
59504;SDS011;45321;53.200;5.814;2024-01-15T13:37:38;5.60;;;1.45;;
59504;SDS011;45321;53.200;5.814;2024-01-15T13:40:06;11.05;;;1.30;;
59504;SDS011;45321;53.200;5.814;2024-01-15T13:42:35;4.10;;;0.75;;
59504;SDS011;45321;53.200;5.814;2024-01-15T13:45:04;5.07;;;1.10;;
59504;SDS011;45321;53.200;5.814;2024-01-15T13:47:31;7.13;;;1.40;;
59504;SDS011;45321;53.200;5.814;2024-01-15T13:49:57;6.65;;;1.17;;
59504;SDS011;45321;53.200;5.814;2024-01-15T13:52:24;9.95;;;1.90;;
59504;SDS011;45321;53.200;5.814;2024-01-15T13:54:49;10.70;;;2.22;;
59504;SDS011;45321;53.200;5.814;2024-01-15T13:57:15;17.30;;;2.42;;
59504;SDS011;45321;53.200;5.814;2024-01-15T13:59:42;19.20;;;3.10;;
59504;SDS011;45321;53.200;5.814;2024-01-15T14:02:08;17.90;;;2.80;;
59504;SDS011;45321;53.200;5.814;2024-01-15T14:04:34;13.60;;;2.95;;
59504;SDS011;45321;53.200;5.814;2024-01-15T14:07:00;20.67;;;2.70;;
59504;SDS011;45321;53.200;5.814;2024-01-15T14:09:26;14.50;;;2.47;;
59504;SDS011;45321;53.200;5.814;2024-01-15T14:11:51;14.65;;;2.20;;
59504;SDS011;45321;53.200;5.814;2024-01-15T14:14:17;14.80;;;2.65;;
59504;SDS011;45321;53.200;5.814;2024-01-15T14:16:43;12.52;;;2.00;;
59504;SDS011;45321;53.200;5.814;2024-01-15T14:19:09;13.07;;;2.50;;
59504;SDS011;45321;53.200;5.814;2024-01-15T14:21:35;13.82;;;2.20;;
59504;SDS011;45321;53.200;5.814;2024-01-15T14:24:01;7.35;;;1.65;;
59504;SDS011;45321;53.200;5.814;2024-01-15T14:26:27;5.13;;;1.08;;
59504;SDS011;45321;53.200;5.814;2024-01-15T14:28:53;6.18;;;1.10;;
59504;SDS011;45321;53.200;5.814;2024-01-15T14:31:19;3.17;;;0.80;;
59504;SDS011;45321;53.200;5.814;2024-01-15T14:33:45;3.88;;;1.00;;
59504;SDS011;45321;53.200;5.814;2024-01-15T14:36:11;2.65;;;0.88;;
59504;SDS011;45321;53.200;5.814;2024-01-15T14:38:37;2.22;;;0.90;;
59504;SDS011;45321;53.200;5.814;2024-01-15T14:41:02;8.88;;;1.33;;
59504;SDS011;45321;53.200;5.814;2024-01-15T14:43:29;4.38;;;0.90;;
59504;SDS011;45321;53.200;5.814;2024-01-15T14:45:54;9.90;;;1.77;;
59504;SDS011;45321;53.200;5.814;2024-01-15T14:48:21;7.40;;;1.52;;